createdAt,value
2022-12-19T00:01:35.385Z,59.10
2022-12-19T00:04:08.414Z,57.13
2022-12-19T00:06:37.595Z,59.27
2022-12-19T00:09:05.539Z,56.40
2022-12-19T00:11:33.854Z,58.30
2022-12-19T00:14:02.360Z,64.33
2022-12-19T00:16:31.122Z,61.73
2022-12-19T00:19:00.491Z,53.47
2022-12-19T00:21:29.390Z,61.40
2022-12-19T00:23:58.141Z,56.80
2022-12-19T00:26:30.126Z,63.03
2022-12-19T00:28:59.408Z,65.37
2022-12-19T00:31:28.102Z,59.83
2022-12-19T00:33:56.223Z,65.33
2022-12-19T00:36:26.183Z,60.90
2022-12-19T00:38:55.041Z,62.93
2022-12-19T00:41:24.343Z,55.73
2022-12-19T00:43:55.462Z,58.47
2022-12-19T00:46:23.462Z,55.20
2022-12-19T00:48:58.211Z,59.50
2022-12-19T00:51:29.854Z,56.67
2022-12-19T00:53:58.288Z,58.83
2022-12-19T00:56:27.581Z,52.97
2022-12-19T00:58:55.997Z,51.40
2022-12-19T01:01:26.401Z,59.90
2022-12-19T01:04:26.565Z,55.30
2022-12-19T01:06:43.290Z,51.80
2022-12-19T01:09:12.528Z,54.40
2022-12-19T01:11:58.540Z,45.57
2022-12-19T01:14:27.407Z,57.17
2022-12-19T01:16:55.552Z,57.23
2022-12-19T01:19:23.188Z,52.37
2022-12-19T01:21:51.231Z,59.20
2022-12-19T01:24:20.017Z,58.63
2022-12-19T01:26:48.385Z,55.00
2022-12-19T01:29:16.449Z,53.30
2022-12-19T01:31:44.213Z,56.13
2022-12-19T01:34:12.663Z,52.80
2022-12-19T01:36:40.607Z,54.67
2022-12-19T01:39:08.740Z,53.93
2022-12-19T01:41:36.622Z,55.40
2022-12-19T01:44:06.324Z,52.73
2022-12-19T01:46:37.561Z,60.63
2022-12-19T01:49:08.471Z,49.30
2022-12-19T01:51:42.829Z,59.93
2022-12-19T01:54:12.877Z,48.37
2022-12-19T01:56:42.969Z,45.77
2022-12-19T01:59:13.086Z,56.43
2022-12-19T02:01:51.437Z,54.77
2022-12-19T02:04:20.886Z,57.13
2022-12-19T02:06:49.511Z,58.10
2022-12-19T02:09:19.623Z,59.93
2022-12-19T02:11:48.204Z,57.97
2022-12-19T02:14:16.342Z,54.50
2022-12-19T02:16:51.108Z,59.20
2022-12-19T02:19:19.351Z,54.93
2022-12-19T02:22:02.295Z,52.20
2022-12-19T02:24:57.423Z,54.40
2022-12-19T02:27:40.348Z,49.67
2022-12-19T02:30:11.194Z,51.37
2022-12-19T02:32:57.233Z,54.87
2022-12-19T02:35:24.892Z,54.93
2022-12-19T02:38:01.633Z,55.20
2022-12-19T02:40:34.357Z,59.13
2022-12-19T02:43:03.632Z,60.00
2022-12-19T02:45:33.487Z,59.37
2022-12-19T02:48:07.374Z,62.33
2022-12-19T02:50:37.143Z,61.33
2022-12-19T02:53:05.349Z,52.37
2022-12-19T02:55:34.341Z,58.33
2022-12-19T02:58:10.979Z,56.23
2022-12-19T03:00:43.551Z,56.77
2022-12-19T03:03:15.021Z,59.90
2022-12-19T03:06:01.364Z,51.10
2022-12-19T03:08:52.916Z,51.23
2022-12-19T03:11:22.336Z,51.47
2022-12-19T03:13:57.172Z,52.00
2022-12-19T03:16:25.458Z,52.00
2022-12-19T03:18:54.890Z,54.67
2022-12-19T03:21:26.817Z,55.37
2022-12-19T03:23:55.403Z,56.37
2022-12-19T03:26:25.173Z,46.23
2022-12-19T03:29:31.087Z,51.70
2022-12-19T03:32:00.535Z,49.33
2022-12-19T03:34:32.323Z,49.83
2022-12-19T03:37:03.280Z,50.67
2022-12-19T03:39:32.448Z,48.97
2022-12-19T03:42:19.741Z,43.57
2022-12-19T03:44:48.863Z,54.37
2022-12-19T03:47:23.307Z,52.13
2022-12-19T03:49:51.347Z,48.90
2022-12-19T03:52:39.972Z,59.07
2022-12-19T03:55:11.750Z,47.50
2022-12-19T03:58:02.304Z,53.40
2022-12-19T04:00:31.901Z,49.27
2022-12-19T04:02:59.854Z,47.70
2022-12-19T04:05:29.389Z,48.73
2022-12-19T04:07:59.198Z,55.90
2022-12-19T04:10:27.385Z,54.87
2022-12-19T04:12:57.842Z,53.03
2022-12-19T04:15:33.094Z,54.03
2022-12-19T04:18:02.494Z,53.73
2022-12-19T04:20:32.328Z,54.70
2022-12-19T04:23:04.046Z,51.50
2022-12-19T04:25:33.377Z,59.47
2022-12-19T04:28:05.486Z,61.80
2022-12-19T04:30:36.906Z,52.37
2022-12-19T04:33:04.801Z,51.10
2022-12-19T04:35:32.809Z,50.30
2022-12-19T04:38:00.397Z,46.63
2022-12-19T04:40:30.858Z,45.47
2022-12-19T04:42:58.299Z,60.53
2022-12-19T04:45:25.751Z,56.07
2022-12-19T04:47:53.402Z,46.77
2022-12-19T04:50:20.923Z,48.37
2022-12-19T04:52:48.387Z,45.43
2022-12-19T04:55:16.924Z,45.23
2022-12-19T04:57:44.651Z,46.80
2022-12-19T05:00:12.604Z,39.43
2022-12-19T05:02:41.393Z,47.33
2022-12-19T05:05:09.060Z,50.60
2022-12-19T05:07:36.292Z,49.43
2022-12-19T05:10:04.029Z,49.30
2022-12-19T05:12:31.427Z,50.33
2022-12-19T05:14:59.224Z,57.57
2022-12-19T05:17:26.556Z,56.07
2022-12-19T05:19:53.825Z,54.23
2022-12-19T05:22:21.098Z,51.20
2022-12-19T05:24:48.520Z,48.67
2022-12-19T05:27:16.097Z,44.80
2022-12-19T05:29:43.566Z,45.13
2022-12-19T05:32:11.262Z,47.53
2022-12-19T05:34:39.160Z,46.27
2022-12-19T05:37:06.764Z,46.13
2022-12-19T05:39:35.088Z,44.00
2022-12-19T05:42:07.372Z,49.13
2022-12-19T05:44:38.527Z,50.47
2022-12-19T05:47:05.828Z,47.80
2022-12-19T05:49:33.178Z,52.23
2022-12-19T05:52:00.671Z,51.83
2022-12-19T05:54:28.403Z,47.40
2022-12-19T05:56:56.471Z,43.90
2022-12-19T05:59:24.134Z,44.13
2022-12-19T06:01:51.551Z,43.50
2022-12-19T06:04:19.742Z,45.70
2022-12-19T06:06:47.116Z,48.33
2022-12-19T06:09:14.346Z,45.07
2022-12-19T06:11:42.404Z,41.77
2022-12-19T06:14:09.869Z,40.17
2022-12-19T06:16:37.391Z,43.93
2022-12-19T06:19:04.823Z,39.50
2022-12-19T06:21:32.916Z,41.17
2022-12-19T06:24:00.713Z,44.23
2022-12-19T06:26:28.303Z,36.40
2022-12-19T06:28:56.473Z,49.53
2022-12-19T06:31:25.189Z,42.77
2022-12-19T06:33:53.497Z,45.87
2022-12-19T06:36:24.444Z,42.13
2022-12-19T06:38:52.938Z,54.03
2022-12-19T06:41:39.992Z,42.57
2022-12-19T06:44:09.053Z,48.90
2022-12-19T06:46:37.756Z,42.60
2022-12-19T06:49:06.015Z,44.17
2022-12-19T06:51:33.447Z,46.77
2022-12-19T06:54:00.895Z,43.93
2022-12-19T06:56:28.795Z,41.93
2022-12-19T06:58:56.316Z,48.47
2022-12-19T07:01:28.100Z,47.87
2022-12-19T07:03:55.978Z,49.87
2022-12-19T07:06:24.140Z,53.93
2022-12-19T07:08:51.741Z,45.20
2022-12-19T07:11:19.037Z,41.53
2022-12-19T07:13:46.536Z,39.63
2022-12-19T07:16:14.813Z,32.70
2022-12-19T07:18:42.735Z,34.00
2022-12-19T07:21:19.405Z,40.30
2022-12-19T07:23:47.745Z,38.23
2022-12-19T07:26:15.459Z,38.37
2022-12-19T07:28:44.969Z,34.63
2022-12-19T07:31:13.476Z,32.20
2022-12-19T07:33:41.031Z,35.30
2022-12-19T07:36:08.657Z,39.33
2022-12-19T07:38:37.269Z,32.63
2022-12-19T07:41:04.902Z,35.73
2022-12-19T07:43:32.752Z,34.53
2022-12-19T07:46:00.066Z,32.17
2022-12-19T07:48:29.271Z,31.37
2022-12-19T07:50:57.017Z,33.73
2022-12-19T07:53:26.438Z,31.67
2022-12-19T07:55:54.207Z,32.30
2022-12-19T07:58:22.042Z,31.17
2022-12-19T08:01:00.920Z,28.40
2022-12-19T08:03:28.668Z,30.57
2022-12-19T08:06:06.314Z,29.53
2022-12-19T08:08:34.516Z,34.80
2022-12-19T08:11:09.358Z,29.60
2022-12-19T08:13:40.826Z,28.57
2022-12-19T08:16:12.532Z,31.00
2022-12-19T08:18:40.558Z,29.83
2022-12-19T08:21:08.595Z,30.07
2022-12-19T08:23:35.997Z,30.23
2022-12-19T08:26:04.549Z,27.50
2022-12-19T08:28:33.294Z,31.17
2022-12-19T08:31:11.575Z,28.77
2022-12-19T08:33:39.311Z,28.07
2022-12-19T08:36:07.435Z,34.90
2022-12-19T08:38:35.044Z,32.43
2022-12-19T08:41:05.214Z,35.93
2022-12-19T08:43:33.200Z,35.10
2022-12-19T08:46:00.671Z,27.30
2022-12-19T08:48:28.117Z,39.80
2022-12-19T08:50:59.305Z,33.30
2022-12-19T08:53:27.935Z,36.17
2022-12-19T08:55:59.086Z,32.53
2022-12-19T08:58:27.232Z,28.83
2022-12-19T09:00:58.892Z,33.67
2022-12-19T09:03:42.791Z,36.03
2022-12-19T09:06:19.069Z,36.43
2022-12-19T09:08:46.964Z,35.43
2022-12-19T09:11:16.085Z,32.63
2022-12-19T09:13:43.770Z,33.50
2022-12-19T09:16:19.164Z,34.17
2022-12-19T09:18:48.752Z,31.50
2022-12-19T09:21:16.891Z,27.87
2022-12-19T09:23:45.961Z,23.93
2022-12-19T09:26:15.352Z,27.43
2022-12-19T09:28:43.039Z,27.53
2022-12-19T09:31:15.897Z,22.10
2022-12-19T09:33:44.094Z,23.53
2022-12-19T09:36:15.923Z,24.10
2022-12-19T09:38:43.728Z,28.07
2022-12-19T09:41:18.068Z,24.30
2022-12-19T09:43:50.021Z,24.90
2022-12-19T09:46:18.932Z,22.93
2022-12-19T09:48:50.939Z,24.57
2022-12-19T09:51:25.235Z,22.87
2022-12-19T09:54:08.359Z,22.27
2022-12-19T09:56:45.995Z,20.03
2022-12-19T09:59:41.414Z,20.27
2022-12-19T10:02:10.521Z,23.07
2022-12-19T10:04:45.814Z,18.17
2022-12-19T10:07:35.414Z,20.90
2022-12-19T10:12:35.965Z,30.07
2022-12-19T10:12:53.019Z,27.57
2022-12-19T10:15:25.275Z,37.40
2022-12-19T10:18:11.159Z,30.30
2022-12-19T10:20:39.958Z,22.97
2022-12-19T10:23:34.252Z,21.37
2022-12-19T10:26:07.391Z,19.83
2022-12-19T10:28:54.795Z,20.87
2022-12-19T10:31:34.826Z,20.63
2022-12-19T10:34:11.932Z,17.70
2022-12-19T10:37:19.393Z,22.57
2022-12-19T10:39:43.441Z,19.63
2022-12-19T10:42:14.184Z,23.17
2022-12-19T10:44:43.710Z,19.53
2022-12-19T10:47:15.738Z,18.90
2022-12-19T10:49:43.231Z,24.63
2022-12-19T10:52:12.697Z,23.97
2022-12-19T10:54:41.861Z,17.63
2022-12-19T10:57:26.886Z,18.43
2022-12-19T10:59:58.126Z,20.03
2022-12-19T11:02:43.221Z,20.07
2022-12-19T11:05:27.714Z,18.97
2022-12-19T11:08:07.580Z,18.57
2022-12-19T11:12:12.606Z,19.10
2022-12-19T11:17:13.324Z,21.10
2022-12-19T11:22:55.072Z,19.00
2022-12-19T11:29:16.392Z,19.70
2022-12-19T11:30:09.081Z,23.50
2022-12-19T11:30:36.950Z,20.20
2022-12-19T11:30:43.937Z,22.33
2022-12-19T11:31:52.993Z,20.63
2022-12-19T11:33:54.155Z,19.97
2022-12-19T11:36:57.021Z,21.40
2022-12-19T11:39:48.001Z,15.53
2022-12-19T11:42:18.643Z,29.70
2022-12-19T11:44:49.584Z,15.77
2022-12-19T11:47:20.614Z,18.30
2022-12-19T11:50:17.607Z,17.33
2022-12-19T11:53:11.522Z,22.87
2022-12-19T11:55:56.115Z,16.87
2022-12-19T11:58:29.143Z,17.17
2022-12-19T12:01:03.060Z,17.33
2022-12-19T12:04:01.842Z,14.60
2022-12-19T12:06:35.124Z,67.50
2022-12-19T12:13:31.761Z,22.43
2022-12-19T12:17:07.479Z,17.47
2022-12-19T12:24:32.503Z,18.20
2022-12-19T12:31:00.176Z,16.30
2022-12-19T12:31:08.294Z,16.53
2022-12-19T12:31:16.921Z,18.33
2022-12-19T12:31:38.990Z,19.00
2022-12-19T12:31:53.909Z,17.00
2022-12-19T12:35:56.639Z,16.57
2022-12-19T12:38:30.778Z,17.57
2022-12-19T12:41:01.636Z,14.70
2022-12-19T12:43:47.756Z,14.87
2022-12-19T12:46:21.782Z,14.77
2022-12-19T12:48:52.250Z,19.47
2022-12-19T12:51:19.850Z,15.33
2022-12-19T12:53:48.931Z,15.53
2022-12-19T12:56:17.952Z,17.80
2022-12-19T12:58:55.457Z,18.10
2022-12-19T13:01:29.280Z,16.57
2022-12-19T13:03:57.078Z,22.07
2022-12-19T13:06:35.069Z,24.40
2022-12-19T13:09:05.532Z,26.57
2022-12-19T13:12:07.599Z,28.37
2022-12-19T13:14:35.022Z,24.70
2022-12-19T13:17:03.122Z,25.70
2022-12-19T13:19:33.278Z,25.83
2022-12-19T13:22:09.872Z,23.23
2022-12-19T13:24:40.405Z,24.33
2022-12-19T13:27:21.169Z,21.70
2022-12-19T13:30:04.417Z,23.97
2022-12-19T13:32:54.926Z,22.70
2022-12-19T13:36:59.589Z,23.53
2022-12-19T13:39:55.761Z,23.70
2022-12-19T13:41:25.382Z,22.57
2022-12-19T13:43:58.855Z,24.23
2022-12-19T13:46:43.429Z,23.27
2022-12-19T13:49:10.864Z,20.90
2022-12-19T13:51:42.470Z,23.80
2022-12-19T13:54:36.182Z,28.57
2022-12-19T13:57:09.078Z,25.30
2022-12-19T13:59:38.952Z,19.50
2022-12-19T14:02:17.662Z,19.70
2022-12-19T14:04:45.463Z,22.43
2022-12-19T14:07:36.034Z,24.50
2022-12-19T14:11:39.309Z,26.47
2022-12-19T14:13:58.818Z,25.10
2022-12-19T14:15:58.799Z,25.67
2022-12-19T14:18:42.489Z,23.20
2022-12-19T14:22:06.930Z,26.97
2022-12-19T14:24:10.422Z,20.47
2022-12-19T14:28:18.427Z,23.10
2022-12-19T14:30:28.805Z,20.77
2022-12-19T14:33:45.560Z,20.87
2022-12-19T14:36:06.106Z,22.47
2022-12-19T14:39:19.485Z,22.80
2022-12-19T14:41:09.346Z,24.67
2022-12-19T14:43:59.309Z,22.93
2022-12-19T14:52:11.743Z,24.87
2022-12-19T14:54:26.071Z,25.70
2022-12-19T14:54:29.932Z,26.00
2022-12-19T14:56:16.240Z,25.97
2022-12-19T14:58:56.294Z,24.80
2022-12-19T15:01:24.838Z,28.17
2022-12-19T15:04:49.168Z,28.00
2022-12-19T15:07:07.279Z,29.30
2022-12-19T15:11:07.283Z,23.80
2022-12-19T15:14:57.776Z,25.70
2022-12-19T15:15:59.510Z,26.30
2022-12-19T15:18:33.274Z,25.93
2022-12-19T15:21:02.125Z,29.33
2022-12-19T15:23:30.390Z,30.40
2022-12-19T15:26:04.654Z,24.27
2022-12-19T15:28:39.427Z,29.33
2022-12-19T15:31:11.781Z,28.50
2022-12-19T15:33:59.825Z,31.53
2022-12-19T15:36:27.090Z,28.80
2022-12-19T15:38:54.804Z,26.50
2022-12-19T15:41:23.502Z,30.23
2022-12-19T15:44:03.609Z,26.10
2022-12-19T15:46:32.166Z,27.13
2022-12-19T15:48:59.587Z,30.57
2022-12-19T15:51:26.936Z,35.40
2022-12-19T15:53:56.940Z,30.30
2022-12-19T15:56:35.104Z,27.67
2022-12-19T15:59:03.491Z,35.07
2022-12-19T16:01:33.133Z,30.10
2022-12-19T16:04:03.563Z,30.00
2022-12-19T16:06:31.203Z,28.13
2022-12-19T16:08:59.365Z,34.00
2022-12-19T16:11:26.705Z,32.13
2022-12-19T16:13:56.184Z,28.83
2022-12-19T16:16:23.616Z,28.40
2022-12-19T16:18:50.945Z,29.77
2022-12-19T16:21:27.527Z,27.73
2022-12-19T16:24:00.788Z,33.83
2022-12-19T16:26:33.856Z,34.97
2022-12-19T16:29:01.637Z,35.03
2022-12-19T16:31:29.394Z,38.47
2022-12-19T16:33:56.792Z,37.13
2022-12-19T16:36:24.111Z,42.50
2022-12-19T16:38:51.435Z,37.60
2022-12-19T16:41:24.277Z,46.00
2022-12-19T16:43:52.468Z,37.23
2022-12-19T16:46:24.019Z,36.93
2022-12-19T16:48:51.509Z,36.60
2022-12-19T16:51:20.459Z,33.43
2022-12-19T16:53:48.875Z,29.13
2022-12-19T16:56:22.220Z,30.70
2022-12-19T16:58:49.990Z,25.53
2022-12-19T17:01:17.676Z,27.50
2022-12-19T17:03:45.683Z,31.43
2022-12-19T17:06:17.706Z,30.83
2022-12-19T17:08:45.273Z,30.20
2022-12-19T17:11:16.023Z,28.77
2022-12-19T17:13:45.815Z,31.63
2022-12-19T17:16:13.710Z,45.17
2022-12-19T17:18:42.493Z,40.10
2022-12-19T17:21:17.106Z,34.40
2022-12-19T17:23:44.418Z,25.20
2022-12-19T17:26:17.448Z,34.90
2022-12-19T17:28:48.309Z,36.63
2022-12-19T17:31:27.280Z,52.67
2022-12-19T17:33:58.480Z,40.63
2022-12-19T17:36:36.640Z,31.90
2022-12-19T17:39:07.412Z,29.03
2022-12-19T17:41:34.931Z,28.90
2022-12-19T17:44:02.200Z,27.23
2022-12-19T17:46:29.587Z,28.13
2022-12-19T17:48:56.896Z,27.70
2022-12-19T17:51:25.011Z,29.10
2022-12-19T17:53:52.349Z,30.23
2022-12-19T17:56:20.929Z,26.43
2022-12-19T17:58:48.734Z,25.23
2022-12-19T18:01:23.760Z,27.97
2022-12-19T18:03:52.008Z,33.30
2022-12-19T18:06:19.530Z,39.93
2022-12-19T18:08:47.033Z,27.20
2022-12-19T18:11:22.205Z,26.37
2022-12-19T18:13:50.122Z,28.97
2022-12-19T18:16:18.602Z,28.93
2022-12-19T18:18:46.085Z,27.20
2022-12-19T18:21:18.045Z,27.73
2022-12-19T18:23:46.071Z,27.63
2022-12-19T18:26:13.981Z,26.03
2022-12-19T18:28:42.083Z,26.80
2022-12-19T18:31:15.827Z,24.60
2022-12-19T18:33:45.427Z,32.97
2022-12-19T18:36:21.372Z,27.20
2022-12-19T18:38:49.692Z,26.10
2022-12-19T18:41:17.939Z,23.33
2022-12-19T18:43:45.718Z,23.30
2022-12-19T18:46:15.013Z,19.90
2022-12-19T18:48:43.075Z,20.80
2022-12-19T18:51:19.023Z,24.87
2022-12-19T18:53:47.161Z,23.07
2022-12-19T18:56:15.032Z,23.00
2022-12-19T18:58:42.472Z,23.57
2022-12-19T19:01:15.973Z,23.17
2022-12-19T19:03:53.659Z,22.47
2022-12-19T19:06:22.267Z,22.57
2022-12-19T19:08:51.610Z,23.77
2022-12-19T19:11:20.382Z,27.27
2022-12-19T19:13:47.671Z,31.67
2022-12-19T19:16:20.603Z,26.20
2022-12-19T19:18:49.698Z,27.10
2022-12-19T19:21:17.049Z,23.03
2022-12-19T19:23:48.638Z,23.23
2022-12-19T19:26:16.025Z,22.20
2022-12-19T19:28:48.594Z,22.77
2022-12-19T19:31:20.992Z,25.43
2022-12-19T19:33:50.225Z,24.27
2022-12-19T19:36:19.801Z,26.77
2022-12-19T19:38:48.678Z,28.00
2022-12-19T19:41:16.303Z,26.97
2022-12-19T19:43:43.627Z,26.93
2022-12-19T19:46:11.149Z,32.57
2022-12-19T19:48:38.603Z,31.50
2022-12-19T19:51:06.086Z,34.60
2022-12-19T19:53:34.045Z,34.10
2022-12-19T19:56:02.057Z,29.17
2022-12-19T19:58:30.190Z,24.83
2022-12-19T20:00:57.884Z,25.87
2022-12-19T20:03:25.354Z,40.50
2022-12-19T20:06:02.313Z,43.47
2022-12-19T20:08:35.200Z,38.03
2022-12-19T20:11:06.846Z,27.57
2022-12-19T20:13:34.537Z,32.30
2022-12-19T20:16:06.867Z,29.73
2022-12-19T20:18:35.813Z,25.53
2022-12-19T20:21:06.551Z,25.67
2022-12-19T20:23:36.790Z,23.33
2022-12-19T20:26:05.158Z,29.20
2022-12-19T20:28:32.773Z,24.13
2022-12-19T20:31:00.670Z,27.07
2022-12-19T20:33:28.151Z,24.07
2022-12-19T20:35:58.818Z,28.53
2022-12-19T20:38:26.415Z,25.17
2022-12-19T20:40:56.022Z,23.13
2022-12-19T20:43:24.229Z,27.53
2022-12-19T20:45:52.054Z,25.30
2022-12-19T20:48:19.519Z,22.73
2022-12-19T20:50:46.813Z,24.73
2022-12-19T20:53:14.940Z,24.40
2022-12-19T20:55:42.224Z,24.00
2022-12-19T20:58:09.840Z,19.97
2022-12-19T21:00:37.514Z,18.93
2022-12-19T21:05:56.811Z,24.13
2022-12-19T21:08:24.740Z,20.97
2022-12-19T21:10:52.608Z,26.30
2022-12-19T21:13:20.468Z,78.30
2022-12-19T21:15:52.356Z,126.13
2022-12-19T21:18:20.207Z,33.63
2022-12-19T21:20:47.782Z,62.03
2022-12-19T21:23:15.410Z,39.07
2022-12-19T21:25:42.651Z,22.90
2022-12-19T21:28:10.293Z,23.87
2022-12-19T21:30:38.031Z,28.30
2022-12-19T21:33:05.676Z,39.20
2022-12-19T21:35:34.502Z,23.80
2022-12-19T21:38:02.690Z,23.23
2022-12-19T21:40:30.143Z,34.77
2022-12-19T21:42:57.412Z,30.93
2022-12-19T21:45:24.724Z,28.13
2022-12-19T21:47:52.499Z,21.80
2022-12-19T21:50:19.883Z,18.43
2022-12-19T21:52:50.163Z,20.10
2022-12-19T21:55:21.712Z,19.73
2022-12-19T21:57:49.264Z,16.47
2022-12-19T22:00:16.669Z,20.50
2022-12-19T22:03:12.011Z,20.10
2022-12-19T22:05:35.156Z,20.13
2022-12-19T22:08:02.436Z,20.00
2022-12-19T22:10:29.831Z,19.40
2022-12-19T22:12:57.139Z,21.87
2022-12-19T22:15:24.369Z,21.90
2022-12-19T22:17:52.127Z,19.57
2022-12-19T22:20:19.410Z,22.57
2022-12-19T22:22:49.822Z,22.43
2022-12-19T22:25:17.547Z,21.50
2022-12-19T22:27:44.784Z,20.87
2022-12-19T22:30:12.272Z,20.80
2022-12-19T22:32:39.599Z,29.53
2022-12-19T22:35:07.142Z,41.77
2022-12-19T22:37:34.531Z,33.47
2022-12-19T22:40:04.126Z,45.90
2022-12-19T22:42:31.472Z,39.97
2022-12-19T22:44:59.693Z,45.93
2022-12-19T22:47:27.109Z,35.47
2022-12-19T22:49:54.398Z,26.27
2022-12-19T22:52:23.859Z,20.47
2022-12-19T22:54:51.152Z,18.60
2022-12-19T22:57:18.379Z,19.47
2022-12-19T22:59:45.659Z,17.70
2022-12-19T23:02:13.165Z,20.13
2022-12-19T23:04:40.688Z,21.23
2022-12-19T23:07:08.164Z,28.93
2022-12-19T23:09:35.383Z,26.53
2022-12-19T23:12:02.655Z,26.60
2022-12-19T23:14:30.089Z,27.83
2022-12-19T23:16:57.572Z,30.70
2022-12-19T23:19:25.045Z,27.60
2022-12-19T23:21:52.298Z,29.10
2022-12-19T23:24:19.969Z,24.13
2022-12-19T23:26:47.654Z,26.13
2022-12-19T23:29:16.300Z,29.63
2022-12-19T23:31:46.017Z,31.97
2022-12-19T23:34:13.445Z,28.67
2022-12-19T23:39:27.970Z,22.10
2022-12-19T23:41:57.612Z,19.50
2022-12-19T23:44:25.094Z,19.07
2022-12-19T23:46:53.219Z,16.47
2022-12-19T23:49:22.932Z,15.27
2022-12-19T23:51:50.215Z,14.47
2022-12-19T23:54:17.437Z,16.27
2022-12-19T23:56:44.885Z,18.00
2022-12-19T23:59:12.217Z,15.93
